Time;durP1;ratioP1;P1;durP2;ratioP2;P2;SDS_P1;SDS_P2;PMS_P1;PMS_P2;Temp;Humidity;BMP_temperature;BMP_pressure;BME280_temperature;BME280_humidity;BME280_pressure;Samples;Min_cycle;Max_cycle;Signal;HPM_P1;HPM_P2
2022/06/13 00:00:29;;;;;;;5.55;2.85;;;;;;;17.98;64.80;101040.75;5071420;28;20106;-54
2022/06/13 00:02:57;;;;;;;7.32;2.83;;;;;;;17.98;64.92;101029.38;5071699;28;20048;-54
2022/06/13 00:05:26;;;;;;;7.38;2.40;;;;;;;17.96;64.81;101026.81;5072573;28;20059;-54
2022/06/13 00:07:53;;;;;;;6.20;2.50;;;;;;;17.94;64.96;101027.78;5072326;28;20053;-54
2022/06/13 00:10:20;;;;;;;6.13;2.15;;;;;;;17.95;64.86;101034.75;5072147;28;20397;-55
2022/06/13 00:12:46;;;;;;;5.53;2.80;;;;;;;17.95;64.96;101032.13;5072446;28;20113;-54
2022/06/13 00:15:15;;;;;;;5.60;2.50;;;;;;;17.95;64.99;101034.75;5072291;28;20134;-54
2022/06/13 00:17:44;;;;;;;5.68;2.00;;;;;;;17.97;64.72;101030.31;5072110;28;20147;-55
2022/06/13 00:20:12;;;;;;;5.95;2.53;;;;;;;17.95;64.66;101025.09;5072145;28;20052;-51
2022/06/13 00:22:41;;;;;;;6.97;2.50;;;;;;;17.94;64.48;101033.88;5067310;28;20045;-51
2022/06/13 00:25:09;;;;;;;6.53;2.13;;;;;;;17.93;64.43;101020.81;5066699;28;20048;-51
2022/06/13 00:27:36;;;;;;;9.00;2.78;;;;;;;17.93;64.48;101007.72;5072122;28;20056;-52
2022/06/13 00:30:03;;;;;;;6.60;2.22;;;;;;;17.90;64.32;101006.06;5072220;28;20476;-51
2022/06/13 00:32:30;;;;;;;4.72;2.30;;;;;;;17.90;64.38;101005.19;5071982;28;20352;-55
2022/06/13 00:34:57;;;;;;;7.80;2.30;;;;;;;17.89;64.37;101014.81;5072479;28;20052;-54
2022/06/13 00:37:24;;;;;;;5.13;2.20;;;;;;;17.92;64.33;101003.38;5072219;28;20052;-54
2022/06/13 00:39:52;;;;;;;6.40;2.33;;;;;;;17.91;64.28;100999.03;5072240;28;20056;-54
2022/06/13 00:42:21;;;;;;;5.47;2.10;;;;;;;17.91;64.01;100996.41;5071680;28;20044;-52
2022/06/13 00:45:06;;;;;;;5.93;2.30;;;;;;;17.88;64.04;100991.28;5071993;28;20060;-51
2022/06/13 00:47:33;;;;;;;;;;;;;;;17.78;64.20;100989.88;5071871;28;20474;-54
2022/06/13 00:50:03;;;;;;;6.18;2.40;;;;;;;17.80;64.30;100985.44;5071407;28;19924;-50
2022/06/13 00:52:40;;;;;;;5.47;2.53;;;;;;;17.82;63.98;100991.50;5071431;28;20671;-51
2022/06/13 00:55:12;;;;;;;7.80;2.35;;;;;;;17.83;64.21;100982.72;5071778;28;20057;-54
2022/06/13 00:57:40;;;;;;;7.57;1.85;;;;;;;17.84;63.96;100987.91;5070942;28;20110;-51
2022/06/13 01:00:11;;;;;;;5.28;2.20;;;;;;;17.84;63.93;100987.06;5071317;28;20052;-51
2022/06/13 01:02:41;;;;;;;5.38;2.13;;;;;;;17.85;63.97;100983.53;5071914;28;20063;-55
2022/06/13 01:05:09;;;;;;;6.25;1.95;;;;;;;17.85;63.81;100975.66;5072254;28;20050;-53
2022/06/13 01:07:38;;;;;;;4.78;1.80;;;;;;;17.86;63.90;100977.38;5071584;28;20381;-52
2022/06/13 01:12:52;;;;;;;;;;;;;;;17.74;64.08;100972.53;5071953;28;20079;-53
2022/06/13 01:15:35;;;;;;;2.92;1.52;;;;;;;17.76;64.02;100976.81;5074289;28;20349;-53
2022/06/13 01:18:14;;;;;;;6.82;2.25;;;;;;;17.76;64.15;100975.97;5075032;28;20053;-54
2022/06/13 01:20:49;;;;;;;6.15;2.28;;;;;;;17.75;63.95;100974.25;5075678;28;20074;-52
2022/06/13 01:23:49;;;;;;;7.18;2.20;;;;;;;17.76;63.98;100971.59;5065470;28;20107;-53
2022/06/13 01:26:58;;;;;;;6.97;2.00;;;;;;;17.76;63.88;100970.72;5055549;28;20053;-50
2022/06/13 01:29:40;;;;;;;5.13;1.75;;;;;;;17.78;63.81;100979.41;5019444;28;20057;-54
2022/06/13 01:32:18;;;;;;;7.95;3.00;;;;;;;17.80;63.73;100977.56;5055445;28;20049;-54
2022/06/13 01:34:56;;;;;;;6.55;2.40;;;;;;;17.83;63.78;100977.47;5054978;28;20118;-51
2022/06/13 01:37:35;;;;;;;4.70;2.25;;;;;;;17.84;63.64;100968.69;5055089;28;20136;-53
2022/06/13 01:40:13;;;;;;;5.15;2.33;;;;;;;17.87;63.41;100971.22;5055419;28;20056;-51
2022/06/13 01:42:48;;;;;;;6.90;2.90;;;;;;;17.87;63.59;100981.69;5054260;28;20044;-51
2022/06/13 01:45:17;;;;;;;;;;;;;;;17.78;63.78;100975.00;5064053;28;20405;-51
2022/06/13 01:47:55;;;;;;;3.75;2.10;;;;;;;17.78;64.03;100974.16;5075226;28;20140;-50
2022/06/13 01:50:27;;;;;;;7.20;2.83;;;;;;;17.78;63.97;100979.41;5075144;28;20044;-52
2022/06/13 01:53:03;;;;;;;5.20;2.75;;;;;;;17.76;64.28;100981.22;5057987;28;20045;-54
2022/06/13 01:55:41;;;;;;;6.57;2.75;;;;;;;17.72;64.42;100974.38;5054905;28;20045;-54
2022/06/13 01:58:13;;;;;;;10.00;3.17;;;;;;;17.69;64.65;100977.06;5054120;28;20052;-51
2022/06/13 02:00:46;;;;;;;9.10;2.75;;;;;;;17.65;64.75;100979.75;5054712;28;20102;-50
2022/06/13 02:03:19;;;;;;;5.32;2.25;;;;;;;17.64;64.69;100971.94;5054621;28;20053;-50
2022/06/13 02:05:51;;;;;;;5.63;2.50;;;;;;;17.62;64.67;100969.38;5054630;28;20057;-50
2022/06/13 02:08:22;;;;;;;6.55;2.33;;;;;;;17.60;64.65;100976.44;5054392;28;20060;-51
2022/06/13 02:10:55;;;;;;;9.50;2.85;;;;;;;17.58;64.87;100975.63;5054730;28;20053;-52
2022/06/13 02:13:29;;;;;;;6.85;2.40;;;;;;;17.61;64.70;100983.38;5054558;28;20462;-51
2022/06/13 02:16:01;;;;;;;6.43;2.07;;;;;;;17.59;64.47;100977.34;5054984;28;20130;-52
2022/06/13 02:18:33;;;;;;;6.80;2.10;;;;;;;17.62;64.48;100979.84;5054605;28;20087;-52
2022/06/13 02:21:07;;;;;;;8.35;2.28;;;;;;;17.64;64.26;100972.78;5054913;28;20063;-54
2022/06/13 02:23:39;;;;;;;9.30;2.50;;;;;;;17.65;64.08;100966.66;5066924;28;20091;-54
2022/06/13 02:26:11;;;;;;;8.55;2.58;;;;;;;17.66;64.14;100960.53;5073620;28;20471;-54
2022/06/13 02:28:43;;;;;;;5.35;2.50;;;;;;;17.66;64.30;100963.16;5074067;28;20057;-54
2022/06/13 02:31:17;;;;;;;6.00;1.90;;;;;;;17.65;64.07;100958.78;5074797;28;20054;-54
2022/06/13 02:33:50;;;;;;;6.18;2.20;;;;;;;17.63;64.45;100947.50;5074573;28;20048;-54
2022/06/13 02:36:22;;;;;;;2.92;1.83;;;;;;;17.62;64.62;100948.41;5074195;28;20053;-54
2022/06/13 02:38:57;;;;;;;6.38;2.72;;;;;;;17.59;64.64;100951.13;5074608;28;20048;-50
2022/06/13 02:41:29;;;;;;;4.47;2.28;;;;;;;17.56;64.88;100948.63;5074542;28;20056;-51
2022/06/13 02:44:02;;;;;;;7.75;2.80;;;;;;;17.56;64.79;100942.50;5073730;28;20044;-53
2022/06/13 02:46:33;;;;;;;5.30;2.70;;;;;;;17.56;64.66;100938.13;5073907;28;20052;-51
2022/06/13 02:49:05;;;;;;;7.88;3.47;;;;;;;17.56;64.69;100942.50;5074196;28;20052;-54
2022/06/13 02:51:39;;;;;;;5.05;2.95;;;;;;;17.53;64.93;100927.75;5073803;28;20493;-51
2022/06/13 02:54:12;;;;;;;7.75;2.85;;;;;;;17.51;64.82;100934.81;5073878;28;20114;-52
2022/06/13 02:59:49;;;;;;;5.43;2.13;;;;;;;17.44;65.00;100917.59;5073722;28;20059;-54
2022/06/13 03:02:22;;;;;;;5.28;2.25;;;;;;;17.46;65.22;100921.00;5073587;28;20668;-54
2022/06/13 03:04:59;;;;;;;5.72;2.15;;;;;;;17.47;64.88;100917.47;5073723;28;20714;-53
2022/06/13 03:07:35;;;;;;;6.18;2.47;;;;;;;17.47;64.85;100920.09;5073184;28;20071;-54
2022/06/13 03:10:09;;;;;;;5.22;2.50;;;;;;;17.47;64.91;100925.34;5073436;28;20052;-53
2022/06/13 03:12:42;;;;;;;10.30;3.40;;;;;;;17.48;65.04;100929.66;5073864;28;20052;-53
2022/06/13 03:15:18;;;;;;;17.40;13.40;;;;;;;17.49;65.11;100941.88;5073650;28;20101;-53
2022/06/13 03:17:51;;;;;;;12.27;6.85;;;;;;;17.47;65.16;100938.44;5073709;28;20049;-54
2022/06/13 03:20:25;;;;;;;12.27;7.80;;;;;;;17.46;65.44;100939.34;5073454;28;20052;-54
2022/06/13 03:22:58;;;;;;;8.30;6.28;;;;;;;17.46;65.35;100936.72;5073107;28;20051;-50
2022/06/13 03:25:29;;;;;;;8.40;5.32;;;;;;;17.48;65.50;100941.91;5073000;28;20048;-54
2022/06/13 03:28:03;;;;;;;8.90;5.10;;;;;;;17.48;65.65;100934.91;5073264;28;20049;-50
2022/06/13 03:30:33;;;;;;;6.18;4.18;;;;;;;17.48;66.01;100934.06;5073401;28;20063;-51
2022/06/13 03:35:53;;;;;;;6.80;3.50;;;;;;;17.49;65.77;100920.03;5073129;28;20425;-54
2022/06/13 03:38:25;;;;;;;6.60;3.55;;;;;;;17.48;65.73;100903.47;5072840;28;20045;-50
2022/06/13 03:40:54;;;;;;;6.95;2.63;;;;;;;17.48;65.93;100907.84;5073476;28;20044;-50
2022/06/13 03:43:26;;;;;;;4.82;2.63;;;;;;;17.47;65.83;100907.00;5073335;28;20114;-51
2022/06/13 03:45:57;;;;;;;6.45;2.05;;;;;;;17.51;65.52;100903.34;5073019;28;20052;-50
2022/06/13 03:48:30;;;;;;;6.60;2.40;;;;;;;17.57;65.24;100897.91;5073014;28;20048;-50
2022/06/13 03:51:04;;;;;;;9.07;2.17;;;;;;;17.65;64.94;100901.09;5053012;28;20130;-52
2022/06/13 03:53:39;;;;;;;8.50;2.72;;;;;;;17.71;65.06;100896.63;5052575;28;20486;-52
2022/06/13 03:56:14;;;;;;;5.13;2.38;;;;;;;17.75;64.73;100900.84;5052470;28;20060;-50
2022/06/13 03:58:45;;;;;;;5.63;2.50;;;;;;;17.77;64.43;100899.88;5053064;28;20053;-50
2022/06/13 04:01:17;;;;;;;9.27;2.33;;;;;;;17.83;63.92;100893.56;5053666;28;20523;-51
2022/06/13 04:03:44;;;;;;;6.13;3.30;;;;;;;17.89;64.20;100888.94;5072756;28;20051;-54
2022/06/13 04:06:37;;;;;;;6.30;3.28;;;;;;;17.93;64.49;100889.69;5073050;28;20049;-54
2022/06/13 04:09:07;;;;;;;8.77;3.40;;;;;;;17.95;64.59;100887.88;5072768;28;20556;-52
2022/06/13 04:11:50;;;;;;;8.30;2.92;;;;;;;18.01;64.57;100881.53;5073004;28;20052;-53
2022/06/13 04:14:33;;;;;;;7.70;3.90;;;;;;;18.10;64.55;100868.94;5073113;28;20048;-53
2022/06/13 04:17:07;;;;;;;5.07;3.00;;;;;;;18.19;64.27;100873.84;5072515;28;20060;-51
2022/06/13 04:19:48;;;;;;;7.10;2.58;;;;;;;18.38;64.02;100870.53;5072686;28;20102;-53
2022/06/13 04:22:21;;;;;;;7.28;2.60;;;;;;;18.55;63.95;100876.00;5072413;28;20051;-51
2022/06/13 04:25:04;;;;;;;3.50;1.88;;;;;;;18.79;63.53;100877.69;5072546;28;20059;-51
2022/06/13 04:27:43;;;;;;;6.47;2.40;;;;;;;18.99;62.53;100878.66;5072699;28;20048;-53
2022/06/13 04:30:14;;;;;;;7.72;2.63;;;;;;;19.15;62.24;100885.00;5072499;28;20051;-52
2022/06/13 04:32:48;;;;;;;8.68;3.30;;;;;;;19.31;61.98;100878.19;5072618;28;20059;-50
2022/06/13 04:35:16;;;;;;;5.38;2.70;;;;;;;19.43;61.87;100882.94;5072131;28;20114;-51
2022/06/13 04:37:46;;;;;;;8.48;2.63;;;;;;;19.51;61.64;100877.34;5072102;28;20366;-54
2022/06/13 04:40:18;;;;;;;6.30;2.28;;;;;;;19.60;60.76;100874.34;5072303;28;20431;-54
2022/06/13 04:42:47;;;;;;;6.15;2.25;;;;;;;19.70;60.58;100874.78;5071972;28;20052;-51
2022/06/13 04:45:21;;;;;;;7.25;3.25;;;;;;;19.80;61.32;100878.75;5072012;28;20053;-52
2022/06/13 04:47:49;;;;;;;6.70;2.50;;;;;;;19.83;61.65;100868.94;5072614;28;20052;-54
2022/06/13 04:50:20;;;;;;;6.78;2.80;;;;;;;19.85;61.94;100868.88;5075664;28;20052;-51
2022/06/13 04:52:51;;;;;;;6.28;2.70;;;;;;;19.85;62.33;100874.13;5076418;28;20509;-50
2022/06/13 04:55:24;;;;;;;6.30;2.13;;;;;;;19.85;62.12;100871.50;5076404;28;20056;-54
2022/06/13 04:57:52;;;;;;;6.57;2.00;;;;;;;19.83;60.66;100873.34;5076155;28;20085;-54
2022/06/13 05:00:19;;;;;;;5.65;1.58;;;;;;;19.82;60.15;100877.75;5075830;28;20057;-54
2022/06/13 05:02:51;;;;;;;4.50;1.52;;;;;;;19.83;60.02;100883.88;5076111;28;20125;-54
2022/06/13 05:05:39;;;;;;;4.93;1.70;;;;;;;19.80;59.56;100884.00;5076021;28;20412;-53
2022/06/13 05:08:24;;;;;;;13.95;2.40;;;;;;;19.79;59.01;100883.16;5076251;28;20052;-54
2022/06/13 05:10:56;;;;;;;5.80;1.40;;;;;;;19.76;59.28;100879.78;5075933;28;20059;-54
2022/06/13 05:13:26;;;;;;;5.72;1.60;;;;;;;19.73;58.74;100879.91;5076083;28;20056;-54
2022/06/13 05:16:01;;;;;;;6.13;1.60;;;;;;;19.71;58.22;100892.28;5075698;28;20454;-54
2022/06/13 05:18:42;;;;;;;3.78;1.85;;;;;;;19.70;58.15;100893.19;5075694;28;20423;-54
2022/06/13 05:21:43;;;;;;;7.10;2.33;;;;;;;19.68;58.28;100880.13;5075679;28;20492;-54
2022/06/13 05:24:43;;;;;;;4.28;1.83;;;;;;;19.68;58.27;100882.75;5074194;28;20043;-54
2022/06/13 05:27:10;;;;;;;6.00;2.00;;;;;;;19.67;58.64;100880.19;5075498;28;20052;-54
2022/06/13 05:29:37;;;;;;;3.83;1.60;;;;;;;19.67;58.54;100886.31;5074162;28;20083;-51
2022/06/13 05:32:07;;;;;;;4.47;1.85;;;;;;;19.65;58.18;100882.03;5075444;28;20113;-54
2022/06/13 05:34:36;;;;;;;8.32;2.53;;;;;;;19.61;58.25;100889.19;5075053;28;20478;-54
2022/06/13 05:37:04;;;;;;;8.00;2.38;;;;;;;19.59;58.12;100895.44;5075200;28;20075;-54
2022/06/13 05:39:32;;;;;;;7.20;2.13;;;;;;;19.56;58.07;100892.94;5075197;28;20063;-51
2022/06/13 05:41:59;;;;;;;7.93;1.83;;;;;;;19.53;58.01;100892.16;5075153;28;20106;-53
2022/06/13 05:44:26;;;;;;;4.93;2.10;;;;;;;19.49;58.23;100890.56;5075035;28;20044;-54
2022/06/13 05:46:53;;;;;;;7.95;2.00;;;;;;;19.47;58.42;100881.03;5074902;28;20110;-53
2022/06/13 05:49:20;;;;;;;7.38;1.77;;;;;;;19.47;58.46;100881.88;5075222;28;20048;-54
2022/06/13 05:51:47;;;;;;;7.03;2.03;;;;;;;19.45;58.77;100883.72;5074895;28;20086;-54
2022/06/13 05:54:14;;;;;;;6.03;1.88;;;;;;;19.44;58.79;100887.28;5074930;28;20495;-50
2022/06/13 05:56:45;;;;;;;8.23;2.22;;;;;;;19.44;58.62;100891.66;5074084;28;20052;-51
2022/06/13 05:59:12;;;;;;;9.23;3.13;;;;;;;19.43;58.51;100895.22;5075180;28;20056;-51
2022/06/13 06:01:39;;;;;;;5.22;1.67;;;;;;;19.44;58.29;100897.78;5075017;28;20056;-53
2022/06/13 06:04:06;;;;;;;8.05;2.50;;;;;;;19.46;58.60;100916.13;5074835;28;20062;-52
2022/06/13 06:06:35;;;;;;;15.27;3.20;;;;;;;19.48;58.60;100920.38;5074472;28;20479;-54
2022/06/13 06:09:04;;;;;;;10.48;2.22;;;;;;;19.44;58.80;100918.81;5075067;28;20074;-54
2022/06/13 06:11:32;;;;;;;7.45;1.77;;;;;;;19.42;58.63;100912.78;5071295;28;20083;-49
2022/06/13 06:14:00;;;;;;;10.05;2.72;;;;;;;19.41;58.50;100913.69;5065210;28;20044;-48
2022/06/13 06:16:29;;;;;;;4.43;1.77;;;;;;;19.44;58.82;100918.81;5068171;28;20063;-51
2022/06/13 06:18:56;;;;;;;7.13;3.00;;;;;;;19.48;59.29;100909.88;5064044;28;20513;-51
2022/06/13 06:21:23;;;;;;;6.97;2.60;;;;;;;19.48;59.24;100915.13;5074406;28;20060;-49
2022/06/13 06:23:51;;;;;;;7.07;2.47;;;;;;;19.46;59.46;100911.72;5073158;28;20036;-49
2022/06/13 06:26:21;;;;;;;6.32;2.58;;;;;;;19.46;59.91;100916.97;5074079;28;20045;-49
2022/06/13 06:28:49;;;;;;;8.32;2.58;;;;;;;19.44;60.34;100917.97;5072803;28;20174;-49
2022/06/13 06:31:18;;;;;;;5.10;2.30;;;;;;;19.43;60.51;100909.22;5073677;28;20063;-49
2022/06/13 06:33:45;;;;;;;7.68;2.72;;;;;;;19.42;60.64;100904.88;5073524;28;20551;-51
2022/06/13 06:36:13;;;;;;;12.77;2.75;;;;;;;19.42;60.55;100890.88;5072270;28;20059;-50
2022/06/13 06:38:45;;;;;;;6.47;2.42;;;;;;;19.41;60.78;100897.91;5071903;28;20131;-50
2022/06/13 06:41:14;;;;;;;7.80;2.50;;;;;;;19.41;61.17;100912.84;5072110;28;20086;-52
2022/06/13 06:43:41;;;;;;;7.93;3.30;;;;;;;19.39;61.47;100922.56;5071859;28;20054;-51
2022/06/13 06:46:08;;;;;;;6.97;2.47;;;;;;;19.35;61.32;100919.19;5073472;28;20056;-51
2022/06/13 06:48:38;;;;;;;6.80;2.95;;;;;;;19.33;61.57;100910.53;5073209;28;20453;-51
2022/06/13 06:51:07;;;;;;;10.75;3.25;;;;;;;19.29;61.82;100914.19;5073219;28;20068;-53
2022/06/13 07:01:43;;;;;;;12.85;3.50;;;;;;;19.16;62.66;100918.22;5067900;28;20485;-52
2022/06/13 07:04:11;;;;;;;16.15;3.90;;;;;;;19.13;62.96;100913.09;5072227;28;20465;-50
2022/06/13 07:06:39;;;;;;;9.30;3.13;;;;;;;19.10;63.09;100913.22;5068451;28;20052;-50
2022/06/13 07:09:06;;;;;;;12.02;3.17;;;;;;;19.06;63.10;100916.91;5062462;28;20480;-49
2022/06/13 07:14:20;;;;;;;6.53;2.50;;;;;;;18.99;63.45;100921.53;5063250;28;20055;-50
2022/06/13 07:16:46;;;;;;;6.80;2.67;;;;;;;19.00;63.65;100904.00;5072624;28;20045;-50
2022/06/13 07:19:15;;;;;;;5.50;2.58;;;;;;;19.00;63.90;100904.00;5076369;28;20173;-50
2022/06/13 07:21:42;;;;;;;9.70;2.65;;;;;;;19.00;64.02;100901.38;5077052;28;20055;-50
2022/06/13 07:24:10;;;;;;;8.05;3.13;;;;;;;19.01;64.18;100897.84;5072383;28;20059;-50
2022/06/13 07:26:42;;;;;;;9.65;3.60;;;;;;;19.02;64.30;100899.53;5072596;28;20057;-50
2022/06/13 07:29:10;;;;;;;11.68;3.75;;;;;;;19.03;64.37;100902.13;5072400;28;20068;-50
2022/06/13 07:31:41;;;;;;;5.75;3.20;;;;;;;19.08;64.37;100904.56;5072615;28;20063;-51
2022/06/13 07:34:22;;;;;;;7.47;3.15;;;;;;;19.14;64.45;100899.03;5063153;28;20048;-51
2022/06/13 07:36:51;;;;;;;8.35;3.28;;;;;;;19.18;64.64;100893.59;5065175;28;20076;-51
2022/06/13 07:39:18;;;;;;;8.73;2.85;;;;;;;19.28;64.57;100896.72;5064711;28;20044;-52
2022/06/13 07:41:45;;;;;;;8.13;3.03;;;;;;;19.36;64.35;100894.63;5064860;28;20735;-51
2022/06/13 07:44:18;;;;;;;6.60;4.10;;;;;;;19.46;64.54;100895.94;5064868;28;20048;-52
2022/06/13 07:46:46;;;;;;;9.85;4.00;;;;;;;19.58;64.49;100880.59;5060621;28;20149;-53
2022/06/13 07:49:15;;;;;;;7.30;3.75;;;;;;;19.65;64.19;100868.88;5065672;28;20413;-52
2022/06/13 07:51:45;;;;;;;7.63;3.28;;;;;;;19.86;63.82;100865.31;5072607;28;20131;-51
2022/06/13 07:54:13;;;;;;;8.23;3.75;;;;;;;20.17;63.16;100857.75;5070465;28;20070;-50
2022/06/13 07:56:43;;;;;;;10.00;3.25;;;;;;;20.39;62.30;100864.66;5072481;28;20566;-50
2022/06/13 07:59:14;;;;;;;8.43;3.17;;;;;;;20.64;61.13;100846.78;5072834;28;20075;-49
2022/06/13 08:01:44;;;;;;;7.80;2.47;;;;;;;21.05;59.84;100846.56;5068833;28;20128;-49
2022/06/13 08:04:12;;;;;;;8.85;3.33;;;;;;;21.47;59.02;100848.00;5067495;28;20040;-52
2022/06/13 08:06:44;;;;;;;8.13;2.22;;;;;;;21.76;58.10;100843.81;5060801;28;20048;-49
2022/06/13 08:09:11;;;;;;;7.35;2.92;;;;;;;22.12;57.35;100851.59;5063257;28;20106;-50
2022/06/13 08:11:44;;;;;;;7.43;3.03;;;;;;;22.32;55.83;100854.84;5072380;28;20101;-52
2022/06/13 08:14:11;;;;;;;6.55;2.55;;;;;;;22.42;55.81;100849.94;5072614;28;20060;-49
2022/06/13 08:16:39;;;;;;;9.02;3.00;;;;;;;22.59;55.36;100841.91;5072407;28;20048;-50
2022/06/13 08:19:07;;;;;;;8.68;3.28;;;;;;;22.81;54.31;100832.78;5064660;28;20118;-50
2022/06/13 08:21:38;;;;;;;7.30;2.78;;;;;;;23.07;53.89;100828.63;5053703;28;20678;-50
2022/06/13 08:24:07;;;;;;;8.35;2.92;;;;;;;23.40;52.96;100823.13;5067097;28;20048;-49
2022/06/13 08:26:37;;;;;;;5.22;2.45;;;;;;;23.75;51.52;100819.22;5076374;28;20045;-49
2022/06/13 08:29:05;;;;;;;9.20;2.88;;;;;;;24.02;50.57;100827.25;5066269;28;20100;-49
2022/06/13 08:31:33;;;;;;;5.72;2.45;;;;;;;24.36;49.70;100827.78;5076149;28;20056;-50
2022/06/13 08:34:01;;;;;;;7.68;2.05;;;;;;;24.74;48.37;100820.00;5076075;28;20439;-49
2022/06/13 08:36:28;;;;;;;2.70;1.20;;;;;;;25.16;47.54;100822.50;5075970;28;20140;-49
2022/06/13 08:38:55;;;;;;;8.40;2.00;;;;;;;25.41;46.44;100823.47;5075598;28;20143;-52
2022/06/13 08:41:40;;;;;;;4.50;1.50;;;;;;;25.65;44.97;100821.78;5075637;28;20121;-49
2022/06/13 08:44:34;;;;;;;3.80;1.23;;;;;;;25.95;44.48;100831.22;5075536;28;20056;-51
2022/06/13 08:47:07;;;;;;;3.80;1.42;;;;;;;26.16;44.54;100829.72;5075280;28;20048;-50
2022/06/13 08:49:41;;;;;;;4.30;1.10;;;;;;;26.36;43.31;100833.59;5075945;28;20087;-50
2022/06/13 08:52:27;;;;;;;3.25;0.95;;;;;;;26.62;41.97;100831.72;5075650;28;20309;-49
2022/06/13 08:55:03;;;;;;;2.10;0.80;;;;;;;26.81;41.66;100826.72;5075395;28;20088;-50
2022/06/13 08:57:38;;;;;;;1.80;0.68;;;;;;;26.91;40.73;100822.41;5076023;28;20094;-51
2022/06/13 09:00:08;;;;;;;;;;;;;;;26.89;39.18;100829.66;5075097;28;20053;-51
2022/06/13 09:02:43;;;;;;;2.38;0.90;;;;;;;26.82;40.09;100838.22;5069199;28;19935;-50
2022/06/13 09:05:15;;;;;;;2.53;1.08;;;;;;;26.76;40.17;100834.19;5073239;28;20044;-50
2022/06/13 09:07:51;;;;;;;4.70;0.90;;;;;;;26.78;40.61;100826.97;5074423;28;20212;-51
2022/06/13 09:10:25;;;;;;;3.42;1.13;;;;;;;26.89;39.63;100829.66;5074971;28;20044;-52
2022/06/13 09:13:04;;;;;;;3.20;0.98;;;;;;;26.89;38.38;100829.66;5068519;28;20067;-51
2022/06/13 09:15:37;;;;;;;3.90;1.40;;;;;;;26.82;39.31;100825.75;5059180;28;20493;-51
2022/06/13 09:18:14;;;;;;;3.80;1.10;;;;;;;26.76;39.34;100836.88;5060910;28;20049;-52
2022/06/13 09:20:53;;;;;;;5.63;1.40;;;;;;;26.72;39.23;100841.56;5074886;28;20067;-52
2022/06/13 09:23:31;;;;;;;3.05;1.27;;;;;;;26.59;39.16;100837.25;5061350;28;20111;-50
2022/06/13 09:26:10;;;;;;;3.95;1.50;;;;;;;26.41;38.13;100832.31;5073312;28;20109;-53
2022/06/13 09:28:48;;;;;;;4.35;1.00;;;;;;;26.25;37.90;100818.41;5074938;28;20122;-51
2022/06/13 09:31:22;;;;;;;4.72;1.33;;;;;;;26.14;38.53;100820.16;5075080;28;20064;-50
2022/06/13 09:33:52;;;;;;;;;;;;;;;25.96;37.86;100822.28;5075344;28;20086;-51
2022/06/13 09:36:28;;;;;;;2.65;1.15;;;;;;;25.87;39.25;100807.03;5074826;28;20007;-51
2022/06/13 09:39:01;;;;;;;5.43;1.55;;;;;;;25.75;39.22;100798.97;5382130;22;20157;-51
2022/06/13 09:41:57;;;;;;;4.22;1.38;;;;;;;25.64;39.07;100796.19;5028760;28;20069;-54
2022/06/13 09:44:52;;;;;;;3.00;1.25;;;;;;;25.51;39.54;100800.66;5031594;28;20132;-53
2022/06/13 09:47:35;;;;;;;7.43;1.73;;;;;;;25.40;41.00;100804.03;5035059;28;20069;-51
2022/06/13 09:50:11;;;;;;;8.18;2.00;;;;;;;25.30;40.73;100810.09;5033284;28;20453;-51
2022/06/13 09:52:52;;;;;;;6.03;1.90;;;;;;;25.13;41.18;100806.78;5016368;28;20438;-51
2022/06/13 09:55:28;;;;;;;8.73;1.70;;;;;;;24.94;41.80;100793.00;5015766;28;20054;-53
2022/06/13 09:58:12;;;;;;;5.68;1.90;;;;;;;24.80;40.88;100782.50;5023296;28;20048;-54
2022/06/13 10:00:58;;;;;;;;;;;;;;;24.61;42.20;100776.72;5032936;28;20448;-53
2022/06/13 10:03:51;;;;;;;5.88;1.55;;;;;;;24.51;41.27;100779.97;5034342;28;19929;-51
2022/06/13 10:06:29;;;;;;;4.95;1.95;;;;;;;24.46;42.18;100779.44;5014268;28;20053;-51
2022/06/13 10:09:19;;;;;;;4.53;1.13;;;;;;;24.48;42.59;100784.63;5016710;28;20107;-52
2022/06/13 10:12:09;;;;;;;7.30;1.67;;;;;;;24.51;43.22;100782.63;5028972;28;20054;-53
2022/06/13 10:14:57;;;;;;;4.88;1.60;;;;;;;24.58;43.45;100776.94;5031057;28;20049;-52
2022/06/13 10:17:39;;;;;;;4.15;1.55;;;;;;;24.64;43.28;100777.38;5035085;28;20053;-52
2022/06/13 10:20:18;;;;;;;4.97;1.60;;;;;;;24.74;43.49;100774.94;5034854;28;20386;-53
2022/06/13 10:23:00;;;;;;;6.60;2.42;;;;;;;24.85;43.25;100769.78;5034684;28;20465;-51
2022/06/13 10:25:45;;;;;;;5.28;1.55;;;;;;;24.95;43.52;100781.44;5034307;28;20061;-54
2022/06/13 10:28:39;;;;;;;6.68;1.83;;;;;;;25.06;43.54;100776.34;5032954;28;20057;-54
2022/06/13 10:31:28;;;;;;;4.00;1.42;;;;;;;25.20;43.15;100769.22;5031273;28;20056;-53
2022/06/13 10:34:03;;;;;;;6.47;2.05;;;;;;;25.31;43.34;100769.34;5030559;28;20057;-54
2022/06/13 10:36:42;;;;;;;5.43;1.80;;;;;;;25.42;42.69;100770.28;5025537;28;20053;-54
2022/06/13 10:39:13;;;;;;;5.78;2.35;;;;;;;25.55;43.22;100759.69;5033077;28;20064;-51
2022/06/13 10:41:45;;;;;;;5.65;1.90;;;;;;;25.71;42.20;100755.00;5033461;28;20406;-55
2022/06/13 10:44:16;;;;;;;6.05;1.38;;;;;;;25.77;41.90;100759.88;5033390;28;20053;-53
2022/06/13 10:46:49;;;;;;;5.22;1.58;;;;;;;25.87;41.43;100759.22;5013799;28;20081;-52
2022/06/13 10:49:25;;;;;;;5.30;2.15;;;;;;;25.90;41.41;100759.84;5020509;28;20053;-54
2022/06/13 10:52:13;;;;;;;3.55;1.45;;;;;;;25.85;40.67;100761.13;5031237;28;20053;-53
2022/06/13 10:54:46;;;;;;;3.83;1.55;;;;;;;25.76;41.31;100763.50;5024185;28;20701;-51
2022/06/13 10:57:22;;;;;;;4.47;1.70;;;;;;;25.69;41.04;100770.22;5033486;28;20057;-52
2022/06/13 11:00:12;;;;;;;12.13;2.10;;;;;;;25.53;40.92;100808.53;5032917;28;20064;-51
2022/06/13 11:02:48;;;;;;;6.97;1.23;;;;;;;25.31;40.08;100811.78;5033713;28;20136;-50
2022/06/13 11:05:25;;;;;;;4.72;1.17;;;;;;;24.84;38.62;100826.41;5031036;28;21122;-51
2022/06/13 11:08:02;;;;;;;4.72;0.60;;;;;;;24.45;38.49;100836.03;5032165;28;20056;-51
2022/06/13 11:10:50;;;;;;;6.80;0.93;;;;;;;24.02;38.93;100826.41;5030024;28;20418;-52
2022/06/13 11:13:26;;;;;;;5.68;1.10;;;;;;;23.60;41.47;100830.75;5031330;28;20053;-53
2022/06/13 11:24:43;;;;;;;3.00;0.80;;;;;;;21.91;49.85;100833.31;5025665;28;20409;-50
2022/06/13 11:27:40;;;;;;;3.30;1.00;;;;;;;21.65;51.58;100820.66;5031603;28;20049;-50
2022/06/13 11:30:38;;;;;;;8.93;2.17;;;;;;;21.18;54.46;100813.38;5033108;28;20469;-55
2022/06/13 11:33:09;;;;;;;4.05;1.15;;;;;;;20.91;54.01;100804.22;5033587;28;20066;-51
2022/06/13 11:35:46;;;;;;;5.50;1.20;;;;;;;20.73;54.31;100816.50;5033015;28;20060;-54
2022/06/13 11:38:25;;;;;;;4.40;1.20;;;;;;;20.55;54.78;100818.28;5033442;28;20060;-54
2022/06/13 11:41:30;;;;;;;3.60;1.13;;;;;;;20.29;56.16;100830.03;5032433;28;20396;-53
2022/06/13 11:44:02;;;;;;;2.65;1.10;;;;;;;20.14;56.54;100821.03;5033579;28;20053;-52
2022/06/13 11:46:39;;;;;;;2.45;1.35;;;;;;;20.05;57.40;100831.13;5033342;28;20052;-52
2022/06/13 11:49:30;;;;;;;3.67;1.08;;;;;;;19.93;58.17;100821.19;5032315;28;20064;-50
2022/06/13 11:52:08;;;;;;;4.90;1.67;;;;;;;19.84;58.34;100827.72;5031704;28;20057;-51
2022/06/13 11:54:43;;;;;;;4.13;1.33;;;;;;;19.75;58.48;100825.47;5031270;28;20583;-51
2022/06/13 11:57:28;;;;;;;3.58;1.50;;;;;;;19.70;58.88;100816.94;5029356;28;20111;-51
2022/06/13 12:00:03;;;;;;;3.28;1.40;;;;;;;19.63;58.89;100812.88;5028647;28;20067;-53
2022/06/13 12:05:47;;;;;;;6.03;2.03;;;;;;;19.52;59.94;100800.19;5026591;28;20060;-51
2022/06/13 12:08:49;;;;;;;8.20;2.33;;;;;;;19.50;59.59;100802.03;5029369;28;20372;-52
2022/06/13 12:11:26;;;;;;;6.07;2.60;;;;;;;19.44;59.75;100805.78;5024249;28;20335;-50
2022/06/13 12:14:13;;;;;;;5.63;2.03;;;;;;;19.44;60.19;100808.41;5032518;28;20520;-51
2022/06/13 12:16:51;;;;;;;6.38;2.38;;;;;;;19.43;60.23;100805.84;5032590;28;20052;-51
2022/06/13 12:19:34;;;;;;;5.82;1.77;;;;;;;19.44;60.36;100808.41;5030452;28;20046;-53
2022/06/13 12:22:17;;;;;;;6.15;2.20;;;;;;;19.48;60.27;100803.88;5031414;28;20049;-56
2022/06/13 12:25:04;;;;;;;5.78;1.80;;;;;;;19.51;61.05;100794.06;5032392;28;20049;-53
2022/06/13 12:27:53;;;;;;;7.43;2.10;;;;;;;19.61;61.06;100793.69;5032233;28;20453;-53
2022/06/13 12:30:54;;;;;;;6.85;2.70;;;;;;;19.75;61.89;100797.41;5032085;28;20484;-54